TimeEST,TemperatureF,Dew PointF,Humidity,Sea Level PressureIn,VisibilityMPH,Wind Direction,Wind SpeedMPH,Gust SpeedMPH,PrecipitationIn,Events,Conditions,WindDirDegrees,DateUTC
12:14 AM,28.4,23.0,80,30.17,10.0,SW,6.9,-,N/A,,Clear,220,2012-12-12 05:14:00
12:34 AM,28.4,23.0,80,30.17,10.0,SSW,9.2,-,N/A,,Clear,210,2012-12-12 05:34:00
12:54 AM,28.4,24.8,86,30.17,10.0,SSW,10.4,17.3,N/A,,Clear,210,2012-12-12 05:54:00
1:14 AM,28.4,23.0,80,30.17,10.0,SW,10.4,-,N/A,,Clear,220,2012-12-12 06:14:00
1:34 AM,28.4,24.8,86,30.18,10.0,SW,8.1,-,N/A,,Clear,230,2012-12-12 06:34:00
1:54 AM,28.4,23.0,80,30.18,10.0,SW,9.2,-,N/A,,Clear,220,2012-12-12 06:54:00
2:14 AM,28.4,23.0,80,30.19,10.0,SW,5.8,-,N/A,,Clear,230,2012-12-12 07:14:00
2:34 AM,28.4,23.0,80,30.20,10.0,SW,6.9,-,N/A,,Clear,220,2012-12-12 07:34:00
2:54 AM,28.4,23.0,80,30.20,10.0,SW,8.1,-,N/A,,Clear,220,2012-12-12 07:54:00
3:14 AM,28.4,23.0,80,30.21,10.0,SW,8.1,-,N/A,,Clear,230,2012-12-12 08:14:00
3:34 AM,28.4,23.0,80,30.21,10.0,SW,6.9,-,N/A,,Clear,230,2012-12-12 08:34:00
3:54 AM,28.4,23.0,80,30.22,10.0,SW,8.1,-,N/A,,Clear,220,2012-12-12 08:54:00
4:14 AM,28.4,23.0,80,30.22,10.0,SW,5.8,-,N/A,,Clear,230,2012-12-12 09:14:00
4:34 AM,26.6,23.0,86,30.22,10.0,SW,5.8,-,N/A,,Clear,220,2012-12-12 09:34:00
4:54 AM,28.4,23.0,80,30.22,10.0,SW,8.1,-,N/A,,Clear,220,2012-12-12 09:54:00
5:14 AM,28.4,23.0,80,30.23,10.0,SW,5.8,-,N/A,,Clear,230,2012-12-12 10:14:00
5:34 AM,28.4,23.0,80,30.24,10.0,SW,5.8,-,N/A,,Clear,230,2012-12-12 10:34:00
5:54 AM,28.4,23.0,80,30.25,10.0,WSW,5.8,-,N/A,,Clear,240,2012-12-12 10:54:00
6:14 AM,28.4,23.0,80,30.25,10.0,SW,8.1,-,N/A,,Clear,230,2012-12-12 11:14:00
6:34 AM,28.4,23.0,80,30.26,10.0,SW,9.2,-,N/A,,Clear,230,2012-12-12 11:34:00
6:54 AM,28.4,23.0,80,30.26,10.0,SW,4.6,-,N/A,,Clear,230,2012-12-12 11:54:00
7:14 AM,28.4,23.0,80,30.27,10.0,SW,6.9,-,N/A,,Clear,220,2012-12-12 12:14:00
7:34 AM,26.6,23.0,86,30.27,10.0,SSW,6.9,-,N/A,,Clear,210,2012-12-12 12:34:00
7:54 AM,26.6,23.0,86,30.27,10.0,SSW,6.9,-,N/A,,Clear,210,2012-12-12 12:54:00
8:14 AM,26.6,23.0,86,30.28,10.0,SW,4.6,-,N/A,,Clear,220,2012-12-12 13:14:00
8:34 AM,26.6,23.0,86,30.29,10.0,South,6.9,-,N/A,,Clear,190,2012-12-12 13:34:00
8:54 AM,28.4,23.0,80,30.29,10.0,SSW,8.1,-,N/A,,Clear,210,2012-12-12 13:54:00
9:14 AM,28.4,24.8,86,30.30,10.0,SSW,6.9,-,N/A,,Clear,210,2012-12-12 14:14:00
9:34 AM,30.2,24.8,80,30.31,10.0,SW,9.2,-,N/A,,Clear,230,2012-12-12 14:34:00
9:54 AM,30.2,24.8,80,30.32,10.0,WSW,6.9,-,N/A,,Clear,250,2012-12-12 14:54:00
10:14 AM,32.0,24.8,75,30.33,10.0,WSW,8.1,-,N/A,,Clear,250,2012-12-12 15:14:00
10:34 AM,33.8,24.8,70,30.33,10.0,WSW,5.8,-,N/A,,Clear,250,2012-12-12 15:34:00
10:54 AM,35.6,24.8,65,30.34,10.0,SW,6.9,-,N/A,,Clear,230,2012-12-12 15:54:00
11:14 AM,35.6,24.8,65,30.34,10.0,WSW,9.2,-,N/A,,Clear,240,2012-12-12 16:14:00
11:34 AM,37.4,24.8,60,30.34,10.0,WSW,6.9,-,N/A,,Clear,250,2012-12-12 16:34:00
11:54 AM,39.2,24.8,56,30.34,10.0,SW,5.8,-,N/A,,Clear,230,2012-12-12 16:54:00
12:14 PM,39.2,24.8,56,30.34,10.0,WSW,6.9,-,N/A,,Clear,250,2012-12-12 17:14:00
12:34 PM,39.2,24.8,56,30.33,10.0,SW,5.8,-,N/A,,Clear,220,2012-12-12 17:34:00
12:54 PM,39.2,24.8,56,30.33,10.0,SW,9.2,-,N/A,,Clear,220,2012-12-12 17:54:00
1:14 PM,41.0,24.8,53,30.33,10.0,SW,8.1,-,N/A,,Clear,230,2012-12-12 18:14:00
1:34 PM,41.0,24.8,53,30.33,10.0,SW,8.1,-,N/A,,Clear,220,2012-12-12 18:34:00
1:54 PM,42.8,24.8,49,30.33,10.0,SW,9.2,-,N/A,,Clear,230,2012-12-12 18:54:00
2:14 PM,42.8,24.8,49,30.33,10.0,SSW,9.2,-,N/A,,Clear,210,2012-12-12 19:14:00
2:54 PM,39.2,30.2,70,30.33,10.0,South,9.2,-,N/A,,Clear,180,2012-12-12 19:54:00
3:14 PM,41.0,28.4,61,30.33,10.0,South,10.4,-,N/A,,Clear,180,2012-12-12 20:14:00
3:35 PM,39.2,28.4,65,30.33,10.0,South,12.7,-,N/A,,Clear,190,2012-12-12 20:35:00
3:54 PM,39.2,28.4,65,30.32,10.0,South,10.4,-,N/A,,Clear,180,2012-12-12 20:54:00
4:14 PM,39.2,28.4,65,30.33,10.0,South,9.2,-,N/A,,Clear,190,2012-12-12 21:14:00
4:34 PM,37.4,28.4,70,30.33,10.0,South,8.1,-,N/A,,Clear,190,2012-12-12 21:34:00
4:54 PM,37.4,28.4,70,30.33,10.0,SSW,6.9,-,N/A,,Clear,200,2012-12-12 21:54:00
5:15 PM,35.6,28.4,75,30.33,10.0,SSW,5.8,-,N/A,,Clear,200,2012-12-12 22:15:00
5:34 PM,35.6,28.4,75,30.34,10.0,SSW,5.8,-,N/A,,Clear,200,2012-12-12 22:34:00
5:54 PM,35.6,28.4,75,30.34,10.0,SSW,5.8,-,N/A,,Clear,200,2012-12-12 22:54:00
6:14 PM,35.6,30.2,81,30.34,10.0,SSW,6.9,-,N/A,,Clear,200,2012-12-12 23:14:00
6:34 PM,35.6,30.2,81,30.35,10.0,SSW,6.9,-,N/A,,Clear,200,2012-12-12 23:34:00
6:54 PM,37.4,28.4,70,30.35,10.0,SSW,3.5,-,N/A,,Clear,210,2012-12-12 23:54:00
7:14 PM,35.6,28.4,75,30.36,10.0,SSW,4.6,-,N/A,,Clear,200,2012-12-13 00:14:00
7:54 PM,35.6,28.4,75,30.36,10.0,SSW,8.1,-,N/A,,Clear,200,2012-12-13 00:54:00
8:14 PM,35.6,30.2,81,30.36,10.0,SSW,9.2,-,N/A,,Clear,200,2012-12-13 01:14:00
8:34 PM,35.6,30.2,81,30.36,10.0,SSW,8.1,-,N/A,,Clear,200,2012-12-13 01:34:00
8:54 PM,35.6,30.2,81,30.36,10.0,SSW,8.1,-,N/A,,Clear,200,2012-12-13 01:54:00
9:14 PM,35.6,30.2,81,30.36,10.0,SSW,9.2,-,N/A,,Clear,200,2012-12-13 02:14:00
9:34 PM,35.6,30.2,81,30.36,10.0,SSW,8.1,-,N/A,,Clear,200,2012-12-13 02:34:00
9:55 PM,35.6,30.2,81,30.37,10.0,SSW,6.9,-,N/A,,Clear,200,2012-12-13 02:55:00
10:14 PM,35.6,30.2,81,30.37,10.0,SSW,6.9,-,N/A,,Clear,210,2012-12-13 03:14:00
10:34 PM,35.6,30.2,81,30.37,10.0,SSW,6.9,-,N/A,,Clear,200,2012-12-13 03:34:00
10:54 PM,35.6,30.2,81,30.37,10.0,South,8.1,-,N/A,,Clear,190,2012-12-13 03:54:00
11:14 PM,35.6,30.2,81,30.37,10.0,SSW,9.2,-,N/A,,Clear,200,2012-12-13 04:14:00
11:34 PM,35.6,30.2,81,30.37,10.0,South,10.4,-,N/A,,Clear,190,2012-12-13 04:34:00
11:54 PM,35.6,30.2,81,30.37,10.0,South,10.4,-,N/A,,Clear,190,2012-12-13 04:54:00